createdAt,value
2023-04-25T00:01:05.837Z,4.43
2023-04-25T00:03:34.226Z,4.53
2023-04-25T00:06:03.282Z,4.60
2023-04-25T00:08:31.234Z,4.73
2023-04-25T00:10:59.174Z,5.50
2023-04-25T00:13:27.503Z,5.00
2023-04-25T00:15:57.114Z,5.30
2023-04-25T00:18:25.065Z,5.47
2023-04-25T00:20:52.919Z,5.57
2023-04-25T00:23:20.855Z,5.40
2023-04-25T00:25:50.544Z,6.23
2023-04-25T00:28:18.838Z,5.20
2023-04-25T00:30:46.884Z,4.50
2023-04-25T00:33:16.214Z,4.70
2023-04-25T00:35:44.318Z,4.30
2023-04-25T00:38:12.404Z,4.57
2023-04-25T00:40:40.320Z,4.57
2023-04-25T00:43:08.152Z,4.90
2023-04-25T00:45:40.977Z,4.07
2023-04-25T00:48:08.968Z,4.83
2023-04-25T00:50:38.985Z,4.20
2023-04-25T00:53:07.282Z,4.03
2023-04-25T00:55:37.015Z,4.40
2023-04-25T00:58:04.952Z,3.93
2023-04-25T01:00:32.960Z,4.37
2023-04-25T01:03:03.734Z,4.20
2023-04-25T01:05:32.074Z,3.97
2023-04-25T01:08:01.568Z,3.80
2023-04-25T01:10:29.610Z,4.33
2023-04-25T01:12:57.516Z,3.80
2023-04-25T01:15:25.734Z,3.80
2023-04-25T01:17:56.233Z,3.50
2023-04-25T01:20:27.905Z,3.97
2023-04-25T01:22:57.641Z,3.83
2023-04-25T01:25:25.926Z,3.63
2023-04-25T01:27:54.408Z,3.63
2023-04-25T01:30:22.713Z,3.83
2023-04-25T01:32:51.163Z,3.90
2023-04-25T01:35:19.095Z,4.20
2023-04-25T01:37:47.301Z,3.83
2023-04-25T01:40:16.882Z,3.77
2023-04-25T01:42:46.007Z,4.10
2023-04-25T01:45:14.600Z,3.93
2023-04-25T01:47:44.529Z,4.13
2023-04-25T01:50:13.127Z,3.97
2023-04-25T01:52:41.188Z,4.07
2023-04-25T01:55:11.162Z,4.00
2023-04-25T01:57:44.020Z,4.40
2023-04-25T02:00:15.073Z,4.43
2023-04-25T02:02:43.214Z,4.43
2023-04-25T02:05:24.022Z,3.57
2023-04-25T02:07:51.906Z,4.00
2023-04-25T02:10:19.877Z,4.07
2023-04-25T02:12:59.185Z,3.80
2023-04-25T02:15:48.688Z,4.23
2023-04-25T02:18:18.485Z,4.50
2023-04-25T02:20:46.861Z,3.90
2023-04-25T02:23:16.239Z,3.50
2023-04-25T02:25:44.315Z,3.90
2023-04-25T02:28:13.481Z,4.50
2023-04-25T02:30:41.382Z,4.27
2023-04-25T02:33:09.231Z,4.10
2023-04-25T02:35:37.675Z,3.80
2023-04-25T02:38:05.529Z,3.87
2023-04-25T02:40:34.748Z,3.73
2023-04-25T02:43:02.582Z,3.53
2023-04-25T02:45:31.814Z,4.13
2023-04-25T02:47:59.771Z,3.33
2023-04-25T02:50:27.915Z,3.80
2023-04-25T02:52:55.726Z,3.90
2023-04-25T02:55:28.710Z,4.30
2023-04-25T02:57:58.046Z,3.70
2023-04-25T03:00:49.234Z,3.67
2023-04-25T03:03:19.056Z,3.73
2023-04-25T03:05:47.892Z,4.60
2023-04-25T03:08:16.421Z,3.90
2023-04-25T03:10:45.219Z,4.07
2023-04-25T03:13:13.491Z,3.90
2023-04-25T03:15:43.875Z,4.30
2023-04-25T03:18:13.149Z,3.30
2023-04-25T03:20:42.627Z,3.77
2023-04-25T03:23:11.010Z,4.10
2023-04-25T03:25:41.400Z,3.53
2023-04-25T03:28:09.344Z,4.17
2023-04-25T03:30:37.270Z,3.70
2023-04-25T03:33:05.294Z,4.00
2023-04-25T03:35:35.030Z,3.80
2023-04-25T03:38:02.926Z,3.80
2023-04-25T03:40:35.817Z,3.77
2023-04-25T03:43:10.054Z,4.00
2023-04-25T03:45:39.836Z,3.37
2023-04-25T03:48:08.241Z,3.47
2023-04-25T03:50:37.613Z,3.30
2023-04-25T03:53:07.236Z,3.50
2023-04-25T03:55:55.045Z,3.27
2023-04-25T03:58:24.028Z,3.60
2023-04-25T04:00:51.927Z,3.60
2023-04-25T04:03:20.264Z,3.83
2023-04-25T04:05:50.005Z,3.60
2023-04-25T04:08:19.148Z,4.07
2023-04-25T04:10:47.027Z,3.63
2023-04-25T04:13:15.202Z,4.00
2023-04-25T04:15:43.470Z,3.57
2023-04-25T04:18:12.214Z,3.80
2023-04-25T04:20:40.732Z,3.00
2023-04-25T04:23:10.525Z,3.77
2023-04-25T04:25:38.670Z,4.00
2023-04-25T04:28:19.661Z,3.80
2023-04-25T04:30:53.970Z,3.70
2023-04-25T04:33:22.244Z,3.40
2023-04-25T04:35:56.668Z,3.87
2023-04-25T04:38:26.294Z,3.37
2023-04-25T04:40:57.103Z,3.63
2023-04-25T04:43:33.509Z,3.60
2023-04-25T04:46:19.931Z,3.90
2023-04-25T04:49:11.868Z,3.33
2023-04-25T04:51:59.670Z,3.83
2023-04-25T04:54:55.569Z,3.27
2023-04-25T04:57:37.829Z,3.23
2023-04-25T05:00:23.354Z,3.90
2023-04-25T05:02:57.569Z,3.03
2023-04-25T05:05:46.804Z,3.33
2023-04-25T05:08:34.931Z,3.43
2023-04-25T05:11:30.160Z,3.37
2023-04-25T05:14:17.837Z,3.60
2023-04-25T05:16:50.972Z,3.60
2023-04-25T05:19:31.896Z,3.40
2023-04-25T05:22:20.379Z,2.73
2023-04-25T05:25:10.613Z,3.13
2023-04-25T05:27:53.934Z,3.80
2023-04-25T05:30:40.301Z,3.67
2023-04-25T05:33:13.044Z,3.60
2023-04-25T05:35:41.165Z,3.17
2023-04-25T05:38:09.157Z,3.40
2023-04-25T05:40:55.812Z,2.90
2023-04-25T05:43:47.846Z,3.37
2023-04-25T05:46:42.135Z,3.50
2023-04-25T05:49:30.399Z,3.07
2023-04-25T05:52:16.977Z,3.23
2023-04-25T05:54:51.897Z,3.37
2023-04-25T05:57:25.207Z,3.40
2023-04-25T05:59:55.751Z,3.70
2023-04-25T06:02:29.655Z,3.40
2023-04-25T06:04:58.065Z,3.23
2023-04-25T06:07:26.123Z,3.70
2023-04-25T06:09:54.371Z,3.30
2023-04-25T06:12:22.202Z,3.40
2023-04-25T06:14:51.536Z,3.20
2023-04-25T06:17:20.845Z,3.30
2023-04-25T06:19:51.389Z,3.07
2023-04-25T06:22:20.098Z,2.90
2023-04-25T06:24:47.932Z,2.63
2023-04-25T06:27:17.101Z,2.53
2023-04-25T06:29:45.232Z,2.83
2023-04-25T06:32:13.178Z,3.20
2023-04-25T06:34:43.530Z,3.30
2023-04-25T06:37:11.489Z,2.87
2023-04-25T06:39:41.155Z,3.33
2023-04-25T06:42:09.435Z,3.03
2023-04-25T06:44:59.908Z,3.20
2023-04-25T06:47:30.712Z,3.47
2023-04-25T06:50:00.017Z,2.93
2023-04-25T06:52:27.926Z,2.70
2023-04-25T06:54:56.318Z,2.90
2023-04-25T06:57:36.377Z,3.63
2023-04-25T07:00:24.350Z,3.30
2023-04-25T07:02:52.370Z,3.00
2023-04-25T07:05:22.275Z,2.90
2023-04-25T07:07:50.488Z,2.80
2023-04-25T07:10:18.419Z,2.90
2023-04-25T07:12:46.415Z,3.33
2023-04-25T07:15:14.260Z,3.40
2023-04-25T07:17:46.164Z,2.47
2023-04-25T07:20:14.172Z,2.90
2023-04-25T07:22:43.836Z,2.47
2023-04-25T07:25:12.196Z,2.67
2023-04-25T07:27:41.720Z,2.53
2023-04-25T07:30:15.212Z,2.77
2023-04-25T07:32:43.177Z,2.10
2023-04-25T07:35:11.388Z,2.67
2023-04-25T07:37:39.466Z,2.57
2023-04-25T07:40:14.262Z,2.50
2023-04-25T07:42:47.190Z,2.40
2023-04-25T07:45:19.378Z,2.70
2023-04-25T07:47:47.778Z,2.20
2023-04-25T07:50:15.903Z,2.70
2023-04-25T07:52:43.839Z,2.47
2023-04-25T07:55:22.177Z,2.03
2023-04-25T07:57:59.104Z,2.10
2023-04-25T08:00:30.681Z,2.13
2023-04-25T08:03:18.830Z,2.10
2023-04-25T08:05:47.790Z,2.73
2023-04-25T08:08:16.137Z,2.60
2023-04-25T08:10:45.923Z,2.30
2023-04-25T08:13:15.012Z,3.00
2023-04-25T08:15:42.903Z,2.53
2023-04-25T08:18:11.182Z,2.20
2023-04-25T08:20:39.153Z,2.37
2023-04-25T08:23:09.699Z,2.50
2023-04-25T08:26:02.093Z,2.20
2023-04-25T08:28:31.243Z,2.20
2023-04-25T08:31:01.683Z,2.10
2023-04-25T08:33:36.693Z,2.80
2023-04-25T08:36:24.185Z,2.83
2023-04-25T08:39:03.705Z,2.90
2023-04-25T08:41:34.035Z,2.20
2023-04-25T08:44:02.822Z,2.33
2023-04-25T08:46:32.375Z,2.00
2023-04-25T08:49:23.380Z,1.87
2023-04-25T08:51:52.487Z,1.70
2023-04-25T08:54:35.686Z,2.10
2023-04-25T08:57:08.476Z,2.13
2023-04-25T08:59:39.266Z,1.73
2023-04-25T09:02:10.113Z,2.13
2023-04-25T09:04:38.531Z,2.10
2023-04-25T09:07:06.467Z,1.90
2023-04-25T09:09:35.191Z,1.93
2023-04-25T09:12:03.568Z,1.80
2023-04-25T09:14:33.315Z,1.73
2023-04-25T09:17:13.211Z,1.73
2023-04-25T09:19:51.975Z,1.90
2023-04-25T09:22:38.808Z,2.10
2023-04-25T09:25:10.712Z,2.23
2023-04-25T09:27:51.856Z,1.87
2023-04-25T09:30:33.215Z,1.57
2023-04-25T09:33:18.945Z,1.13
2023-04-25T09:35:53.826Z,1.60
2023-04-25T09:38:32.523Z,1.43
2023-04-25T09:41:12.397Z,1.73
2023-04-25T09:43:47.722Z,1.63
2023-04-25T09:46:18.363Z,1.63
2023-04-25T09:48:54.886Z,1.70
2023-04-25T09:51:33.629Z,1.70
2023-04-25T09:54:02.899Z,1.40
2023-04-25T09:56:39.278Z,1.37
2023-04-25T09:59:11.193Z,1.50
2023-04-25T10:01:42.682Z,1.57
2023-04-25T10:04:20.913Z,1.53
2023-04-25T10:07:01.438Z,1.60
2023-04-25T10:09:34.796Z,1.60
2023-04-25T10:12:02.740Z,1.40
2023-04-25T10:14:31.606Z,1.43
2023-04-25T10:17:01.616Z,1.10
2023-04-25T10:19:30.406Z,1.70
2023-04-25T10:22:08.110Z,1.50
2023-04-25T10:24:37.395Z,1.50
2023-04-25T10:27:06.256Z,1.30
2023-04-25T10:29:34.316Z,1.50
2023-04-25T10:32:04.597Z,1.77
2023-04-25T10:34:43.220Z,1.40
2023-04-25T10:37:12.481Z,1.50
2023-04-25T10:39:42.096Z,1.47
2023-04-25T10:42:10.381Z,2.10
2023-04-25T10:44:40.016Z,1.50
2023-04-25T10:47:10.858Z,1.63
2023-04-25T10:49:43.145Z,1.40
2023-04-25T10:52:19.470Z,1.70
2023-04-25T10:54:53.196Z,1.70
2023-04-25T10:57:31.512Z,1.70
2023-04-25T11:00:18.211Z,1.40
2023-04-25T11:02:49.595Z,1.77
2023-04-25T11:05:24.920Z,1.70
2023-04-25T11:08:06.447Z,1.90
2023-04-25T11:10:37.157Z,1.17
2023-04-25T11:13:05.523Z,1.90
2023-04-25T11:15:33.354Z,1.80
2023-04-25T11:18:04.094Z,1.60
2023-04-25T11:20:32.072Z,1.97
2023-04-25T11:23:00.937Z,1.20
2023-04-25T11:25:28.826Z,1.40
2023-04-25T11:27:58.153Z,1.30
2023-04-25T11:30:27.218Z,1.33
2023-04-25T11:32:55.749Z,1.47
2023-04-25T11:35:26.551Z,1.30
2023-04-25T11:37:54.566Z,1.50
2023-04-25T11:40:22.514Z,1.37
2023-04-25T11:42:50.691Z,1.40
2023-04-25T11:45:19.975Z,1.50
2023-04-25T11:47:48.034Z,1.57
2023-04-25T11:50:16.320Z,1.53
2023-04-25T11:52:47.128Z,1.40
2023-04-25T11:55:16.355Z,1.50
2023-04-25T11:57:45.712Z,1.50
2023-04-25T12:00:18.647Z,1.30
2023-04-25T12:02:48.863Z,1.70
2023-04-25T12:05:31.215Z,1.90
2023-04-25T12:08:12.960Z,1.60
2023-04-25T12:10:42.143Z,1.73
2023-04-25T12:13:23.316Z,1.63
2023-04-25T12:15:51.671Z,1.60
2023-04-25T12:18:22.759Z,1.90
2023-04-25T12:20:50.722Z,1.43
2023-04-25T12:23:28.964Z,1.93
2023-04-25T12:25:57.209Z,1.90
2023-04-25T12:28:28.220Z,1.40
2023-04-25T12:31:00.498Z,1.30
2023-04-25T12:33:30.150Z,1.30
2023-04-25T12:35:59.356Z,1.40
2023-04-25T12:38:30.889Z,1.20
2023-04-25T12:40:59.366Z,1.40
2023-04-25T12:43:27.251Z,1.30
2023-04-25T12:45:56.476Z,1.43
2023-04-25T12:48:26.880Z,1.10
2023-04-25T12:50:54.783Z,1.23
2023-04-25T12:53:25.613Z,1.80
2023-04-25T12:58:24.682Z,1.73
2023-04-25T13:00:52.558Z,1.63
2023-04-25T13:03:20.583Z,1.37
2023-04-25T13:05:48.709Z,1.30
2023-04-25T13:08:16.792Z,1.63
2023-04-25T13:10:44.606Z,1.60
2023-04-25T13:13:15.600Z,1.47
2023-04-25T13:15:43.545Z,1.20
2023-04-25T13:18:11.767Z,1.77
2023-04-25T13:20:39.820Z,1.17
2023-04-25T13:23:07.620Z,1.30
2023-04-25T13:25:35.489Z,1.43
2023-04-25T13:28:03.987Z,1.30
2023-04-25T13:30:33.187Z,1.60
2023-04-25T13:33:04.167Z,1.43
2023-04-25T13:35:32.866Z,1.70
2023-04-25T13:38:00.773Z,1.60
2023-04-25T13:40:29.179Z,1.53
2023-04-25T13:42:57.326Z,1.40
2023-04-25T13:45:25.399Z,1.27
2023-04-25T13:47:54.823Z,1.40
2023-04-25T13:50:22.851Z,1.50
2023-04-25T13:52:50.721Z,1.50
2023-04-25T13:55:19.221Z,1.53
2023-04-25T13:57:47.652Z,1.57
2023-04-25T14:00:17.140Z,1.70
2023-04-25T14:02:45.034Z,1.57
2023-04-25T14:05:14.451Z,1.40
2023-04-25T14:07:42.416Z,1.40
2023-04-25T14:10:11.071Z,1.60
2023-04-25T14:12:38.908Z,1.97
2023-04-25T14:15:07.922Z,1.60
2023-04-25T14:17:36.011Z,2.20
2023-04-25T14:20:06.382Z,1.90
2023-04-25T14:22:35.663Z,2.53
2023-04-25T14:25:04.250Z,1.97
2023-04-25T14:27:32.132Z,1.70
2023-04-25T14:29:59.956Z,1.90
2023-04-25T14:32:27.823Z,1.60
2023-04-25T14:34:55.717Z,2.97
2023-04-25T14:37:23.578Z,1.77
2023-04-25T14:39:52.836Z,1.53
2023-04-25T14:42:20.794Z,1.93
2023-04-25T14:44:48.730Z,1.60
2023-04-25T14:47:16.923Z,1.40
2023-04-25T14:49:47.617Z,1.40
2023-04-25T14:52:15.527Z,1.60
2023-04-25T14:54:43.352Z,1.30
2023-04-25T14:57:13.098Z,1.50
2023-04-25T14:59:40.954Z,1.70
2023-04-25T15:02:08.948Z,1.60
2023-04-25T15:04:36.926Z,1.70
2023-04-25T15:07:05.120Z,1.40
2023-04-25T15:09:32.928Z,1.60
2023-04-25T15:12:01.484Z,1.40
2023-04-25T15:14:30.648Z,1.90
2023-04-25T15:16:58.588Z,1.50
2023-04-25T15:19:26.698Z,1.33
2023-04-25T15:21:54.751Z,1.70
2023-04-25T15:24:22.982Z,1.70
2023-04-25T15:26:51.478Z,1.87
2023-04-25T15:29:20.131Z,1.57
2023-04-25T15:31:49.383Z,1.80
2023-04-25T15:34:17.314Z,2.17
2023-04-25T15:36:45.118Z,1.50
2023-04-25T15:39:12.993Z,1.80
2023-04-25T15:41:41.705Z,1.67
2023-04-25T15:44:10.948Z,1.97
2023-04-25T15:46:39.673Z,1.87
2023-04-25T15:49:09.387Z,1.80
2023-04-25T15:51:37.336Z,2.13
2023-04-25T15:54:05.377Z,1.70
2023-04-25T15:56:33.327Z,1.63
2023-04-25T15:59:01.113Z,1.50
2023-04-25T16:01:30.975Z,1.87
2023-04-25T16:03:59.740Z,1.90
2023-04-25T16:06:30.227Z,2.10
2023-04-25T16:08:58.127Z,1.70
2023-04-25T16:11:26.096Z,1.80
2023-04-25T16:13:54.065Z,1.90
2023-04-25T16:16:21.920Z,1.70
2023-04-25T16:18:49.795Z,1.60
2023-04-25T16:21:17.683Z,1.83
2023-04-25T16:23:46.891Z,1.33
2023-04-25T16:26:14.752Z,1.70
2023-04-25T16:28:42.598Z,1.60
2023-04-25T16:31:10.454Z,1.30
2023-04-25T16:33:38.411Z,1.50
2023-04-25T16:36:07.199Z,1.20
2023-04-25T16:38:35.140Z,1.50
2023-04-25T16:41:04.545Z,1.50
2023-04-25T16:43:32.769Z,1.30
2023-04-25T16:46:00.598Z,1.23
2023-04-25T16:48:28.495Z,1.40
2023-04-25T16:50:56.707Z,1.40
2023-04-25T16:53:24.634Z,1.97
2023-04-25T16:55:52.522Z,1.50
2023-04-25T16:58:21.847Z,1.90
2023-04-25T17:00:49.724Z,1.90
2023-04-25T17:03:17.754Z,1.87
2023-04-25T17:05:45.646Z,1.60
2023-04-25T17:08:13.522Z,1.70
2023-04-25T17:10:41.591Z,1.80
2023-04-25T17:13:09.579Z,1.60
2023-04-25T17:15:38.694Z,1.60
2023-04-25T17:18:06.687Z,1.40
2023-04-25T17:20:34.670Z,1.50
2023-04-25T17:23:02.969Z,1.30
2023-04-25T17:25:31.412Z,1.40
2023-04-25T17:27:59.276Z,1.30
2023-04-25T17:30:27.744Z,1.40
2023-04-25T17:32:57.478Z,1.30
2023-04-25T17:35:27.829Z,1.20
2023-04-25T17:37:56.745Z,1.60
2023-04-25T17:40:25.811Z,2.27
2023-04-25T17:42:53.748Z,2.00
2023-04-25T17:45:21.818Z,3.10
2023-04-25T17:47:49.677Z,2.30
2023-04-25T17:50:19.468Z,1.90
2023-04-25T17:52:48.331Z,2.13
2023-04-25T17:55:16.301Z,2.33
2023-04-25T17:57:44.201Z,2.57
2023-04-25T18:00:13.467Z,2.47
2023-04-25T18:02:42.951Z,1.80
2023-04-25T18:05:11.223Z,2.00
2023-04-25T18:07:41.545Z,1.67
2023-04-25T18:10:11.734Z,2.40
2023-04-25T18:12:40.325Z,1.60
2023-04-25T18:15:09.316Z,1.73
2023-04-25T18:17:40.296Z,1.93
2023-04-25T18:20:12.045Z,2.60
2023-04-25T18:22:41.502Z,1.53
2023-04-25T18:25:11.084Z,2.10
2023-04-25T18:27:39.742Z,1.60
2023-04-25T18:30:09.523Z,1.80
2023-04-25T18:32:37.585Z,1.50
2023-04-25T18:35:06.173Z,1.50
2023-04-25T18:37:34.332Z,1.70
2023-04-25T18:40:06.992Z,1.50
2023-04-25T18:42:34.885Z,1.60
2023-04-25T18:45:02.781Z,1.73
2023-04-25T18:47:30.628Z,1.70
2023-04-25T18:49:58.474Z,2.07
2023-04-25T18:52:26.692Z,1.70
2023-04-25T18:54:54.562Z,2.43
2023-04-25T18:57:23.787Z,1.80
2023-04-25T18:59:52.117Z,2.10
2023-04-25T19:02:20.247Z,1.70
2023-04-25T19:04:48.250Z,1.53
2023-04-25T19:07:16.353Z,1.90
2023-04-25T19:09:44.136Z,1.70
2023-04-25T19:12:12.126Z,2.10
2023-04-25T19:14:41.720Z,1.80
2023-04-25T19:17:09.723Z,1.70
2023-04-25T19:19:38.180Z,1.73
2023-04-25T19:22:07.398Z,1.60
2023-04-25T19:24:35.277Z,1.60
2023-04-25T19:27:03.293Z,1.80
2023-04-25T19:29:32.559Z,2.00
2023-04-25T19:32:03.296Z,2.00
2023-04-25T19:34:31.154Z,1.97
2023-04-25T19:36:58.951Z,2.07
2023-04-25T19:39:26.939Z,1.40
2023-04-25T19:41:56.571Z,1.87
2023-04-25T19:44:24.625Z,1.80
2023-04-25T19:46:52.587Z,1.70
2023-04-25T19:49:22.183Z,2.23
2023-04-25T19:51:50.118Z,2.17
2023-04-25T19:54:17.978Z,1.83
2023-04-25T19:56:45.882Z,1.67
2023-04-25T19:59:13.666Z,1.70
2023-04-25T20:01:41.667Z,1.67
2023-04-25T20:04:09.586Z,1.57
2023-04-25T20:06:39.017Z,1.93
2023-04-25T20:09:09.369Z,1.77
2023-04-25T20:11:37.446Z,2.07
2023-04-25T20:14:05.802Z,2.47
2023-04-25T20:16:33.757Z,1.97
2023-04-25T20:19:02.186Z,1.67
2023-04-25T20:21:33.009Z,2.00
2023-04-25T20:24:02.360Z,1.70
2023-04-25T20:26:33.696Z,1.67
2023-04-25T20:29:01.666Z,1.90
2023-04-25T20:31:32.300Z,1.70
2023-04-25T20:34:00.795Z,2.13
2023-04-25T20:36:29.642Z,1.60
2023-04-25T20:38:57.908Z,2.20
2023-04-25T20:41:27.258Z,1.67
2023-04-25T20:43:55.142Z,1.80
2023-04-25T20:46:22.981Z,1.80
2023-04-25T20:48:52.652Z,1.63
2023-04-25T20:51:21.353Z,1.80
2023-04-25T20:53:49.434Z,1.67
2023-04-25T20:56:17.294Z,2.30
2023-04-25T20:58:47.409Z,1.97
2023-04-25T21:01:15.407Z,1.90
2023-04-25T21:03:43.841Z,1.83
2023-04-25T21:06:12.315Z,2.10
2023-04-25T21:08:40.095Z,2.07
2023-04-25T21:11:08.507Z,1.60
2023-04-25T21:13:36.593Z,2.10
2023-04-25T21:16:06.654Z,1.90
2023-04-25T21:18:34.710Z,1.57
2023-04-25T21:21:04.130Z,1.70
2023-04-25T21:23:32.827Z,2.20
2023-04-25T21:26:00.725Z,2.10
2023-04-25T21:28:28.852Z,1.80
2023-04-25T21:30:56.712Z,1.70
2023-04-25T21:33:26.080Z,2.00
2023-04-25T21:35:53.941Z,2.03
2023-04-25T21:38:22.121Z,2.30
2023-04-25T21:40:50.651Z,2.07
2023-04-25T21:43:18.523Z,2.07
2023-04-25T21:46:09.177Z,2.60
2023-04-25T21:48:35.665Z,1.90
2023-04-25T21:51:04.129Z,2.03
2023-04-25T21:53:31.989Z,2.07
2023-04-25T21:55:59.886Z,2.10
2023-04-25T21:58:27.709Z,1.93
2023-04-25T22:00:56.133Z,2.10
2023-04-25T22:03:24.087Z,1.90
2023-04-25T22:05:53.505Z,1.67
2023-04-25T22:08:21.801Z,1.83
2023-04-25T22:10:49.606Z,1.83
2023-04-25T22:13:17.569Z,1.90
2023-04-25T22:15:45.804Z,1.80
2023-04-25T22:18:14.203Z,1.70
2023-04-25T22:20:42.068Z,1.70
2023-04-25T22:23:12.811Z,1.63
2023-04-25T22:25:41.973Z,1.50
2023-04-25T22:28:10.653Z,1.73
2023-04-25T22:30:38.554Z,1.73
2023-04-25T22:33:06.550Z,1.77
2023-04-25T22:35:34.474Z,2.20
2023-04-25T22:38:02.325Z,1.70
2023-04-25T22:40:31.747Z,1.80
2023-04-25T22:42:59.585Z,2.10
2023-04-25T22:45:27.520Z,2.20
2023-04-25T22:47:55.657Z,1.90
2023-04-25T22:50:23.787Z,2.13
2023-04-25T22:52:51.645Z,2.00
2023-04-25T22:55:19.574Z,2.30
2023-04-25T22:57:48.849Z,2.00
2023-04-25T23:00:19.944Z,2.10
2023-04-25T23:02:48.490Z,2.20
2023-04-25T23:05:16.760Z,1.73
2023-04-25T23:07:45.411Z,1.93
2023-04-25T23:10:13.964Z,1.70
2023-04-25T23:12:41.872Z,1.90
2023-04-25T23:15:12.405Z,1.87
2023-04-25T23:17:40.845Z,1.70
2023-04-25T23:20:11.177Z,2.03
2023-04-25T23:22:39.397Z,2.03
2023-04-25T23:25:08.910Z,2.20
2023-04-25T23:27:37.295Z,1.90
2023-04-25T23:30:06.442Z,1.90
2023-04-25T23:32:35.719Z,1.87
2023-04-25T23:35:04.964Z,2.00
2023-04-25T23:37:34.402Z,1.73
2023-04-25T23:40:02.386Z,1.80
2023-04-25T23:42:30.393Z,1.73
2023-04-25T23:44:58.172Z,1.70
2023-04-25T23:47:26.273Z,1.60
2023-04-25T23:49:55.701Z,1.47
2023-04-25T23:52:23.715Z,2.23
2023-04-25T23:54:51.611Z,1.53
2023-04-25T23:57:19.501Z,1.80
2023-04-25T23:59:47.283Z,1.77
